Portada
METAR-TAF:

METAR-TAF

Aeroports :

Provincetown Municipal Airport

Provincetown, Massachusetts, Estats Units d'Amèrica

latitud: 42-04N, longitud: 070-13W, altitud: 2 m

Observació

L'informe es va fer fa 3 hores i 13 minuts, a les 12:56 UTC
Vent 15 kt del Nord amb ràfegues de 23 kt
Temperatura 6°C
Humitat 75%
Pressió 1019 hPa
Visibilitat: 16.1 km
Cel ennuvolat a una alçada de 2500 ft

METAR: KPVC 211256Z AUTO 36015G23KT 10SM BKN025 06/02 A3010 RMK AO2 SLP193 T00610017

Hora: 11:09 (16:09 UTC)


TAF: manca

Observacions i pronòstics meteorològics de més de 4000 aeroports (METAR i TAF).

Les estacions disponibles són els punts grocs i vermells al mapa.

Posi el ratolí al punt desitjat per veure el nom de l'estació.

Feu clic per veure les observacions i els pronòstics meteorològics.

Per canviar el mapa: feu clic els botons verds amb una creu de color negre per apropar; al botó verd amb un guió per allunyar la imatge; o en les fletxes verdes per a mapes adjacents.


METAR-TAF: